• Join FlightAware (Why Join?)
  • Login
  • US Flag 
10:08PM EDT


 

Airport Tracker/Info


-or-


 

Live Flight TrackerFlight Track Log ✈ ASQ5319 ✈ 10-May-2013 ✈ KSGF - KATL

Flight Track Log - Related Links

Times and Time Zones

All times are in EDT time to prevent confusion due to time zone crossing. See the ASQ5319 flight status page for this flight to view local times or setup timezone preferences in your user account.

Time Position Orientation Groundspeed Altitude Reporting Facility
EDT Latitude Longitude Course Direction KTS MPH feet Rate Location/Type
07:14AM 37.1706 -93.3078 127° Southeast 237 273 5,600  Level Kansas City Center
07:15AM 37.1581 -93.2119 99° East 255 293 7,900 2,340 Climbing Kansas City Center
07:16AM 37.1442 -93.1081 99° East 281 323 10,400 1,680 Climbing Kansas City Center
07:17AM 37.1214 -92.9908 104° East 333 383 11,400 1,320 Climbing Kansas City Center
07:18AM 37.2307 -93.1546 132° Southeast  Level FlightAware Approximate
07:18AM 37.0561 -92.8872 128° Southeast 373 429 13,100  Level Kansas City Center
07:19AM 37.1609 -93.0570 127° Southeast  Level FlightAware Approximate
07:19AM 36.9869 -92.7842 130° Southeast 383 441 14,800  Level Kansas City Center
07:20AM 36.9169 -92.6811 130° Southeast 387 445 16,500 1,680 Climbing Kansas City Center
07:21AM 36.8333 -92.5578 130° Southeast 390 449 18,300 1,620 Climbing Memphis Center
07:22AM 36.7622 -92.4547 131° Southeast 395 455 19,800 1,320 Climbing Memphis Center
07:23AM 36.6911 -92.3494 130° Southeast 395 455 21,000 600 Climbing Memphis Center
07:24AM 36.6156 -92.2389 130° Southeast 401 461 21,000  Level Memphis Center
07:25AM 36.5461 -92.1392 131° Southeast 411 473 21,100 1,200 Climbing Memphis Center
07:26AM 36.4603 -92.0161 131° Southeast 422 486 23,500 1,440 Climbing Memphis Center
07:27AM 36.3867 -91.9114 131° Southeast 417 480 24,000 660 Climbing Memphis Center
07:28AM 36.3131 -91.7992 129° Southeast 417 480 24,900 900 Climbing Memphis Center
07:29AM 36.2369 -91.7003 134° Southeast 427 491 25,800 600 Climbing Memphis Center
07:30AM 36.1608 -91.5858 129° Southeast 427 491 26,100 360 Climbing Memphis Center
07:31AM 36.0703 -91.4611 132° Southeast 427 491 26,600 480 Climbing Memphis Center
07:32AM 35.9900 -91.3472 131° Southeast 434 499 27,100 480 Climbing Memphis Center
07:33AM 35.9075 -91.2283 131° Southeast 439 505 27,600 480 Climbing Memphis Center
07:34AM 35.8228 -91.1097 131° Southeast 444 511 28,100 480 Climbing Memphis Center
07:35AM 35.7442 -90.9989 131° Southeast 444 511 28,600 420 Climbing Memphis Center
07:36AM 35.6736 -90.8886 128° Southeast 444 511 29,000 180 Climbing Memphis Center
07:37AM 35.5886 -90.7731 132° Southeast 444 511 29,000  Level Memphis Center
07:38AM 35.4994 -90.6478 131° Southeast 444 511 29,000  Level Memphis Center
07:39AM 35.4181 -90.5353 132° Southeast 439 505 29,000  Level Memphis Center
07:40AM 35.3389 -90.4258 132° Southeast 434 499 29,000  Level Memphis Center
07:41AM 35.2619 -90.3214 132° Southeast 428 493 29,000  Level Memphis Center
07:42AM 35.1867 -90.2172 131° Southeast 415 478 29,000  Level Memphis Center
07:43AM 35.1114 -90.1158 132° Southeast 409 471 29,000  Level Memphis Center
07:44AM 35.0361 -90.0122 132° Southeast 409 471 29,000  Level Memphis Center
07:45AM 35.0044 -89.8753 106° East 405 466 29,000  Level Memphis Center
07:46AM 34.9850 -89.7436 100° East 422 486 29,000  Level Memphis Center
07:47AM 34.9611 -89.5969 101° East 441 507 29,000  Level Memphis Center
07:48AM 34.9394 -89.4578 101° East 432 497 29,000  Level Memphis Center
07:49AM 34.9153 -89.3011 101° East 427 491 29,000  Level Memphis Center
07:50AM 34.8931 -89.1594 101° East 427 491 29,000  Level Memphis Center
07:51AM 34.8706 -89.0156 101° East 427 491 29,000  Level Memphis Center
07:52AM 34.8503 -88.8742 100° East 427 491 29,000  Level Memphis Center
07:53AM 34.8275 -88.7278 101° East 433 498 29,000  Level Memphis Center
07:54AM 34.8047 -88.5867 101° East 433 498 29,000  Level Memphis Center
07:55AM 34.7819 -88.4531 102° East 425 489 29,000  Level Memphis Center
07:56AM 34.7586 -88.3069 101° East 419 482 29,000  Level Memphis Center
07:57AM 34.7375 -88.1608 100° East 431 496 29,000  Level Memphis Center
07:58AM 34.7117 -88.0100 102° East 448 516 29,000  Level Memphis Center
07:59AM 34.6925 -87.8819 100° East 443 510 29,000  Level Memphis Center
08:00AM 34.6686 -87.7361 101° East 438 504 29,000  Level Memphis Center
08:01AM 34.6428 -87.5931 102° East 438 504 29,000  Level Memphis Center
08:03AM 34.5836 -87.2303 101° East 438 504 29,000  Level Atlanta Center
08:04AM 34.5536 -87.0906 105° East 433 498 29,000  Level Atlanta Center
08:05AM 34.5278 -86.9508 103° East 433 498 29,000  Level Atlanta Center
08:06AM 34.4997 -86.8089 103° East 433 498 29,000  Level Atlanta Center
08:07AM 34.4717 -86.6667 103° East 433 498 29,000  Level Atlanta Center
08:08AM 34.4456 -86.5225 102° East 433 498 29,000  Level Atlanta Center
08:09AM 34.4169 -86.3806 104° East 433 498 29,000  Level Atlanta Center
08:10AM 34.3883 -86.2364 103° East 433 498 29,000  Level Atlanta Center
08:11AM 34.3594 -86.0919 104° East 433 498 29,000  Level Atlanta Center
08:12AM 34.3306 -85.9456 103° East 433 498 29,000 -660 Level Atlanta Center
08:13AM 34.3072 -85.8267 103° East 433 498 27,700 -2,100 Descending Atlanta Center
08:14AM 34.2761 -85.6603 103° East 455 524 24,800 -2,820 Descending Atlanta Center
08:15AM 34.2386 -85.4886 105° East 469 540 22,100 -2,700 Descending Atlanta Center
08:16AM 34.2050 -85.3322 105° East 478 550 19,500 -2,580 Descending Atlanta Center
08:17AM 34.1519 -85.1958 115° Southeast 459 528 17,000 -2,460 Descending Atlanta Center
08:18AM 34.1072 -85.0775 115° Southeast 422 486 14,600 -1,560 Descending Atlanta Center
08:19AM 34.0494 -84.9739 124° Southeast 381 438 13,900 -1,140 Descending Atlanta Center
08:20AM 33.9792 -84.8881 135° Southeast 363 418 12,400 -960 Descending Atlanta Center
08:21AM 33.9108 -84.7997 133° Southeast 358 412 12,000 -300 Descending Atlanta Center
08:22AM 33.8667 -84.7333 129° Southeast 346 398 12,000  Level Atlanta TRACON
08:23AM 33.8000 -84.6500 134° Southeast 343 395 12,000  Level Atlanta TRACON
08:24AM 33.7500 -84.5833 132° Southeast 267 307 12,000 -720 Level Atlanta TRACON
08:25AM 33.7333 -84.5167 107° East 269 310 10,700 -1,500 Descending Atlanta TRACON
08:26AM 33.7333 -84.4333 90° East 264 304 9,200 -1,560 Descending Atlanta TRACON
08:27AM 33.7333 -84.3667 90° East 257 296 7,900 -1,200 Descending Atlanta TRACON
08:28AM 33.7333 -84.2833 90° East 242 278 7,000 -1,020 Descending Atlanta TRACON
08:29AM 33.7333 -84.2000 90° East 234 269 5,900 -1,020 Descending Atlanta TRACON
08:30AM 33.7000 -84.1667 140° Southeast 190 219 5,100 -960 Descending Atlanta TRACON
08:31AM 33.6667 -84.2000 220° Southwest 166 191 4,100 -720 Descending Atlanta TRACON
08:32AM 33.6500 -84.2500 248° West 167 192 3,700 -600 Descending Atlanta TRACON
08:33AM 33.6500 -84.3000 270° West 171 197 2,900 -840 Descending Atlanta TRACON
08:34AM 33.6500 -84.3500 270° West 150 173 2,100 -840 Descending Atlanta TRACON
08:34AM 33.6500 -84.3833 270° West 137 158 1,400 -780 Descending Atlanta TRACON
08:36AM 33.6367 -84.4279 126° Southeast  Level Estimated
08:43AM 33.6367 -84.4279 North  Level Estimated
08:44AM 33.6367 -84.4279 North  Level Estimated